CST,Max TemperatureF,Mean TemperatureF,Min TemperatureF,Max Dew PointF,MeanDew PointF,Min DewpointF,Max Humidity, Mean Humidity, Min Humidity, Max Sea Level PressureIn, Mean Sea Level PressureIn, Min Sea Level PressureIn, Max VisibilityMiles, Mean VisibilityMiles, Min VisibilityMiles, Max Wind SpeedMPH, Mean Wind SpeedMPH, Max Gust SpeedMPH,PrecipitationIn, CloudCover, Events, WindDirDegrees
2013-2-1,28,14,-1,19,6,-7,79,68,62,30.44,30.22,30.06,10,10,10,16,6,23,0.00,5,,178
2013-2-2,38,32,25,30,24,19,94,77,68,30.20,30.12,30.05,10,10,7,15,4,28,0.00,6,Rain,304
2013-2-3,41,31,21,29,23,14,83,67,53,30.22,30.05,29.78,10,10,10,21,9,31,0.00,0,,214
2013-2-4,32,28,23,28,22,20,92,83,72,30.03,29.93,29.76,10,10,7,16,4,25,0.03,6,,307
2013-2-5,49,38,26,32,27,24,94,73,40,30.07,29.95,29.83,10,9,5,16,4,23,0.00,2,,301
2013-2-6,53,40,27,38,32,26,94,76,54,30.08,29.94,29.83,10,10,10,14,4,18,0.00,2,,140
2013-2-7,38,34,30,34,29,23,90,82,74,30.24,30.06,29.88,10,8,2,17,7,25,0.00,7,Thunderstorm,337
2013-2-8,32,29,26,28,25,23,93,85,76,30.34,30.25,30.15,10,9,4,16,5,16,0.00,5,,126
2013-2-9,48,39,30,36,32,28,93,80,63,30.16,29.93,29.68,10,8,4,20,14,28,0.00,6,Thunderstorm,141
2013-2-10,45,38,31,42,32,22,97,82,68,29.80,29.47,29.27,10,8,2,28,14,38,0.00,7,Rain-Thunderstorm,208
2013-2-11,35,29,23,24,22,20,89,70,60,30.16,30.05,29.81,10,10,10,26,16,41,0.00,4,,307
2013-2-12,48,34,19,26,21,18,96,68,33,30.16,30.01,29.90,10,10,7,14,2,21,0.00,0,,244
2013-2-13,53,37,21,30,26,20,96,67,39,29.91,29.81,29.72,10,10,10,13,2,21,0.00,1,,257
2013-2-14,44,34,22,32,27,16,93,67,41,30.28,30.01,29.79,10,10,3,20,10,28,0.00,4,Rain-Snow,313
2013-2-15,32,24,15,28,20,15,100,85,51,30.36,30.33,30.28,10,9,1,15,8,20,0.00,4,Snow,315
2013-2-16,33,22,12,29,21,12,100,90,79,30.33,30.15,30.01,10,10,0,12,3,,0.00,5,Fog,148
2013-2-17,54,38,23,34,29,21,95,72,45,30.01,29.80,29.56,10,10,10,18,6,24,0.00,0,,139
2013-2-18,42,32,22,33,27,15,96,80,68,30.06,29.79,29.54,10,10,1,30,9,39,0.01,3,Rain-Snow,326
2013-2-19,25,18,10,15,4,0,74,57,33,30.38,30.27,30.07,10,10,10,22,14,33,0.00,0,,323
2013-2-20,25,16,6,8,4,-1,73,57,43,30.39,30.31,30.20,10,10,10,10,5,,0.00,4,,90
2013-2-21,25,23,21,23,17,8,100,81,54,30.24,30.01,29.84,10,5,0,14,8,24,0.17,8,Snow,69
2013-2-22,23,16,10,22,19,10,100,98,89,30.03,29.95,29.84,10,8,2,15,7,18,0.03,4,Snow,311
2013-2-23,36,20,4,34,21,4,100,97,88,30.01,29.91,29.83,10,9,4,10,2,,0.00,0,,155
2013-2-24,41,33,25,35,30,25,100,83,62,30.07,29.98,29.89,10,8,3,7,2,,0.00,5,,123
2013-2-25,35,31,27,31,29,27,100,92,77,30.09,30.04,29.93,10,4,2,9,5,,0.00,6,Snow,353
2013-2-26,32,29,26,32,29,26,100,98,93,29.92,29.85,29.78,7,4,2,13,8,21,0.00,8,Snow,341
2013-2-27,37,30,24,32,27,23,100,86,68,30.10,29.98,29.89,10,8,4,22,13,31,0.00,5,,323
2013-2-28,32,29,26,32,29,26,100,100,96,30.23,30.18,30.10,10,10,10,17,13,26,0.00,8,,326